Time;durP1;ratioP1;P1;durP2;ratioP2;P2;SDS_P1;SDS_P2;PMS_P1;PMS_P2;Temp;Humidity;BMP_temperature;BMP_pressure;BME280_temperature;BME280_humidity;BME280_pressure;Samples;Min_cycle;Max_cycle;Signal;HPM_P1;HPM_P2
2022/01/19 00:02:45;;;;;;;31.70;12.90;;;8.20;99.90;;;;;;10522478;28;20481;-59
2022/01/19 00:07:46;;;;;;;28.80;10.70;;;8.20;99.90;;;;;;10528215;28;20117;-61
2022/01/19 00:12:46;;;;;;;30.48;11.57;;;8.20;99.90;;;;;;10534309;28;20020;-62
2022/01/19 00:17:47;;;;;;;32.33;12.25;;;8.20;99.90;;;;;;10533712;28;20044;-59
2022/01/19 00:22:49;;;;;;;28.85;9.95;;;8.20;99.90;;;;;;10521474;28;20024;-63
2022/01/19 00:27:50;;;;;;;24.00;10.40;;;8.20;99.90;;;;;;10527974;28;20378;-60
2022/01/19 00:32:51;;;;;;;36.17;11.13;;;8.20;99.90;;;;;;10533364;28;20107;-59
2022/01/19 00:37:52;;;;;;;33.30;11.00;;;8.20;99.90;;;;;;10517198;28;20056;-59
2022/01/19 00:42:53;;;;;;;35.60;10.98;;;8.10;99.90;;;;;;10531243;28;20029;-60
2022/01/19 00:47:54;;;;;;;26.55;9.77;;;8.10;99.90;;;;;;10530059;28;20027;-59
2022/01/19 00:52:55;;;;;;;28.85;10.73;;;8.10;99.90;;;;;;10522255;28;20028;-62
2022/01/19 00:57:56;;;;;;;31.15;10.07;;;8.10;99.90;;;;;;10536864;28;20489;-59
2022/01/19 01:02:57;;;;;;;31.25;10.07;;;8.10;99.90;;;;;;10529759;28;20024;-62
2022/01/19 01:07:58;;;;;;;35.45;10.32;;;8.10;99.90;;;;;;10542787;28;20497;-63
2022/01/19 01:13:17;;;;;;;27.83;10.20;;;8.20;99.90;;;;;;10511710;28;20025;-63
2022/01/19 01:18:21;;;;;;;31.83;11.10;;;8.10;99.90;;;;;;10532820;28;20038;-61
2022/01/19 01:23:24;;;;;;;31.58;10.38;;;8.10;99.90;;;;;;10528970;28;20028;-60
2022/01/19 01:28:25;;;;;;;33.85;10.82;;;8.10;99.90;;;;;;10530839;28;20091;-60
2022/01/19 01:33:25;;;;;;;28.30;9.65;;;8.10;99.90;;;;;;10530661;28;20115;-62
2022/01/19 01:38:26;;;;;;;30.13;10.90;;;8.10;99.90;;;;;;10523612;28;20055;-59
2022/01/19 01:43:27;;;;;;;28.42;10.93;;;8.00;99.90;;;;;;10534834;28;20020;-62
2022/01/19 01:48:28;;;;;;;30.60;11.10;;;8.00;99.90;;;;;;10519623;28;20259;-61
2022/01/19 01:53:30;;;;;;;32.15;11.00;;;9.10;99.90;;;;;;10519312;28;20028;-59
2022/01/19 01:58:35;;;;;;;30.23;10.88;;;8.00;99.90;;;;;;10536687;28;20124;-60
2022/01/19 02:03:38;;;;;;;26.85;10.75;;;8.00;99.90;;;;;;10526670;28;20352;-61
2022/01/19 02:08:53;;;;;;;31.30;10.57;;;8.00;99.90;;;;;;10527048;28;20032;-63
2022/01/19 02:24:43;;;;;;;25.27;9.48;;;8.20;99.90;;;;;;10526728;28;20458;-61
2022/01/19 02:40:14;;;;;;;24.25;9.57;;;7.90;99.90;;;;;;10526712;28;20635;-62
2022/01/19 02:50:15;;;;;;;27.92;10.57;;;7.90;99.90;;;;;;10504511;28;20032;-63
2022/01/19 02:55:16;;;;;;;23.27;9.13;;;7.90;99.90;;;;;;10524747;28;20363;-62
2022/01/19 03:10:56;;;;;;;21.23;9.20;;;7.90;99.90;;;;;;10531697;28;20024;-62
2022/01/19 03:15:57;;;;;;;24.38;10.30;;;7.90;99.90;;;;;;10525422;28;20044;-62
2022/01/19 03:20:58;;;;;;;21.70;9.80;;;7.80;99.90;;;;;;10526458;28;20029;-63
2022/01/19 03:26:04;;;;;;;23.40;9.52;;;7.80;99.90;;;;;;10523949;28;20055;-62
2022/01/19 03:31:05;;;;;;;21.40;9.65;;;7.80;99.90;;;;;;10508611;28;20031;-63
2022/01/19 03:36:06;;;;;;;22.02;9.68;;;7.80;99.90;;;;;;10511708;28;20379;-61
2022/01/19 03:41:07;;;;;;;19.25;8.82;;;7.80;99.90;;;;;;10526647;28;20463;-62
2022/01/19 03:46:13;;;;;;;19.05;9.00;;;7.80;99.90;;;;;;10532107;28;20028;-62
2022/01/19 03:51:14;;;;;;;20.65;9.70;;;7.80;99.90;;;;;;10524262;28;20475;-62
2022/01/19 03:56:16;;;;;;;20.27;9.70;;;7.80;99.90;;;;;;10535925;28;20036;-62
2022/01/19 04:01:17;;;;;;;19.92;8.60;;;7.80;99.90;;;;;;10537028;28;20024;-62
2022/01/19 04:06:25;;;;;;;18.98;9.15;;;7.90;99.90;;;;;;10530715;28;20067;-62
2022/01/19 04:11:26;;;;;;;22.58;9.23;;;7.70;99.90;;;;;;10533476;28;20024;-63
2022/01/19 04:16:27;;;;;;;18.63;8.75;;;7.70;99.90;;;;;;10533315;28;20040;-63
2022/01/19 04:21:27;;;;;;;21.25;9.57;;;7.70;99.90;;;;;;10534184;28;20028;-62
2022/01/19 04:26:28;;;;;;;17.52;8.70;;;7.70;99.90;;;;;;10532597;28;20063;-63
2022/01/19 04:31:29;;;;;;;19.35;8.68;;;7.70;99.90;;;;;;10532830;28;20038;-63
2022/01/19 04:36:59;;;;;;;21.33;8.43;;;7.60;99.90;;;;;;10529794;28;20534;-62
2022/01/19 05:08:34;;;;;;;16.30;8.15;;;7.60;99.90;;;;;;10527635;28;20031;-63
2022/01/19 05:13:36;;;;;;;15.27;7.70;;;7.60;99.90;;;;;;10529636;28;20040;-61
2022/01/19 05:18:37;;;;;;;17.92;8.18;;;7.60;99.90;;;;;;10530430;28;20119;-62
2022/01/19 05:23:38;;;;;;;17.88;8.70;;;7.60;99.90;;;;;;10528757;28;20469;-60
2022/01/19 05:28:39;;;;;;;20.83;9.10;;;7.60;99.90;;;;;;10530332;28;20058;-62
2022/01/19 05:33:39;;;;;;;17.55;8.63;;;7.60;99.90;;;;;;10528425;28;20032;-62
2022/01/19 05:38:40;;;;;;;17.17;8.05;;;7.60;99.90;;;;;;10529970;28;20040;-62
2022/01/19 05:43:41;;;;;;;18.13;8.25;;;7.60;99.90;;;;;;10540105;28;20024;-62
2022/01/19 05:48:41;;;;;;;19.58;8.63;;;7.50;99.90;;;;;;10529902;28;20042;-62
2022/01/19 05:53:42;;;;;;;18.88;8.18;;;7.50;99.90;;;;;;10516828;28;20474;-60
2022/01/19 05:58:43;;;;;;;22.48;9.50;;;7.50;99.90;;;;;;10536002;28;20085;-61
2022/01/19 06:03:43;;;;;;;19.25;8.82;;;7.50;99.90;;;;;;10526412;28;20024;-62
2022/01/19 06:08:48;;;;;;;21.00;10.10;;;7.50;99.90;;;;;;10539186;28;20481;-61
2022/01/19 06:13:49;;;;;;;21.70;9.38;;;7.50;99.90;;;;;;10526474;28;20267;-62
2022/01/19 06:18:49;;;;;;;19.58;9.55;;;7.50;99.90;;;;;;10531678;28;20385;-60
2022/01/19 06:23:50;;;;;;;21.40;9.07;;;7.50;99.90;;;;;;10524461;28;20043;-61
2022/01/19 06:28:51;;;;;;;20.65;9.15;;;7.50;99.90;;;;;;10528046;28;20032;-62
2022/01/19 06:33:52;;;;;;;18.42;8.55;;;7.50;99.90;;;;;;10526339;28;20457;-60
2022/01/19 06:38:53;;;;;;;21.38;9.20;;;7.50;99.90;;;;;;10527706;28;20052;-62
2022/01/19 06:43:53;;;;;;;20.00;8.70;;;7.50;99.90;;;;;;10536573;28;20384;-62
2022/01/19 06:48:54;;;;;;;19.05;8.98;;;7.50;99.90;;;;;;10527880;28;20034;-62
2022/01/19 06:53:55;;;;;;;19.60;8.73;;;7.40;99.90;;;;;;10499826;28;20024;-60
2022/01/19 06:58:55;;;;;;;21.33;8.88;;;7.50;99.90;;;;;;10533920;28;20371;-62
2022/01/19 07:03:56;;;;;;;19.27;9.07;;;7.50;99.90;;;;;;10524299;28;20025;-60
2022/01/19 07:08:57;;;;;;;19.58;8.30;;;7.50;99.90;;;;;;10536477;28;20371;-62
2022/01/19 07:13:58;;;;;;;23.65;9.70;;;7.40;99.90;;;;;;10525412;28;20032;-62
2022/01/19 07:18:58;;;;;;;20.63;9.40;;;8.20;99.90;;;;;;10516845;28;20028;-60
2022/01/19 07:23:59;;;;;;;19.60;9.38;;;7.40;99.90;;;;;;10510679;28;20077;-61
2022/01/19 07:29:00;;;;;;;21.05;10.43;;;7.50;99.90;;;;;;10513206;28;20028;-60
2022/01/19 07:34:01;;;;;;;19.70;9.75;;;7.50;99.90;;;;;;10531018;28;20032;-61
2022/01/19 07:39:03;;;;;;;19.85;9.70;;;7.40;99.90;;;;;;10530754;28;20044;-61
2022/01/19 07:44:04;;;;;;;21.70;9.60;;;7.40;99.90;;;;;;10541667;28;20030;-62
2022/01/19 07:49:05;;;;;;;19.45;8.93;;;7.40;99.90;;;;;;10533269;28;20118;-63
2022/01/19 07:54:06;;;;;;;23.35;8.82;;;7.50;99.90;;;;;;10520806;28;20023;-61
2022/01/19 07:59:07;;;;;;;20.80;9.50;;;7.40;99.90;;;;;;10539582;28;20084;-62
2022/01/19 08:04:08;;;;;;;22.30;9.88;;;7.40;99.90;;;;;;10500966;28;20502;-61
2022/01/19 08:09:08;;;;;;;21.90;9.27;;;7.40;99.90;;;;;;10501434;28;20395;-62
2022/01/19 08:14:09;;;;;;;27.20;9.63;;;7.40;99.90;;;;;;10507248;28;20024;-61
2022/01/19 08:19:10;;;;;;;21.58;10.15;;;7.40;99.90;;;;;;10533943;28;20039;-61
2022/01/19 08:24:11;;;;;;;24.30;9.38;;;7.40;99.90;;;;;;10526798;28;20032;-61
2022/01/19 08:29:12;;;;;;;20.10;9.15;;;7.40;99.90;;;;;;10525056;28;20032;-61
2022/01/19 08:34:12;;;;;;;22.30;9.13;;;7.40;99.90;;;;;;10507884;28;20103;-61
2022/01/19 08:39:13;;;;;;;21.92;8.70;;;7.40;99.90;;;;;;10512828;28;20064;-60
2022/01/19 08:44:14;;;;;;;22.17;9.00;;;7.40;99.90;;;;;;10499835;28;20012;-61
2022/01/19 08:49:15;;;;;;;22.48;8.55;;;7.40;99.90;;;;;;10471899;28;20081;-62
2022/01/19 08:54:15;;;;;;;22.05;9.90;;;7.40;99.90;;;;;;10467157;28;20046;-59
2022/01/19 08:59:16;;;;;;;19.50;9.48;;;7.50;99.90;;;;;;10484731;28;20044;-61
2022/01/19 09:04:18;;;;;;;21.05;8.18;;;7.50;99.90;;;;;;10477296;28;20390;-60
2022/01/19 09:09:19;;;;;;;20.92;9.50;;;7.50;99.90;;;;;;10445989;28;20483;-60
2022/01/19 09:14:20;;;;;;;18.55;9.27;;;7.50;99.90;;;;;;10467565;28;20602;-62
2022/01/19 09:19:21;;;;;;;18.67;9.02;;;7.50;99.90;;;;;;10482529;28;20130;-59
2022/01/19 09:24:22;;;;;;;19.67;9.20;;;7.50;99.90;;;;;;10465234;28;20025;-61
2022/01/19 09:29:23;;;;;;;24.20;9.40;;;7.50;99.90;;;;;;10470233;28;20054;-60
2022/01/19 09:34:24;;;;;;;23.92;10.77;;;7.50;99.90;;;;;;10450788;28;20029;-60
2022/01/19 09:39:25;;;;;;;21.58;9.90;;;7.50;99.90;;;;;;10488188;28;20193;-60
2022/01/19 09:44:28;;;;;;;24.05;9.30;;;7.50;99.90;;;;;;10536460;28;20020;-61
2022/01/19 09:49:29;;;;;;;25.05;9.60;;;7.50;99.90;;;;;;10525261;28;20032;-61
2022/01/19 09:54:30;;;;;;;24.17;10.25;;;7.50;99.90;;;;;;10519991;28;20481;-60
2022/01/19 09:59:31;;;;;;;23.88;10.35;;;7.50;99.90;;;;;;10523355;28;20063;-62
2022/01/19 10:04:38;;;;;;;25.00;10.80;;;7.50;99.90;;;;;;10526713;28;20022;-60
2022/01/19 10:09:57;;;;;;;27.38;11.85;;;7.50;99.90;;;;;;10531391;28;20090;-60
2022/01/19 10:20:24;;;;;;;27.55;12.45;;;7.50;99.90;;;;;;10518506;28;20055;-59
2022/01/19 10:25:45;;;;;;;26.75;11.25;;;7.50;99.90;;;;;;10526915;28;20130;-60
2022/01/19 10:30:45;;;;;;;27.38;11.68;;;7.50;99.90;;;;;;10503214;28;20047;-60
2022/01/19 10:35:48;;;;;;;30.35;12.30;;;7.50;99.90;;;;;;10523001;28;20390;-59
2022/01/19 10:40:58;;;;;;;27.83;12.55;;;7.50;99.90;;;;;;10473209;28;20353;-62
2022/01/19 10:46:21;;;;;;;27.90;12.27;;;7.50;99.90;;;;;;10474621;28;20032;-59
2022/01/19 10:51:22;;;;;;;29.60;12.68;;;7.50;99.90;;;;;;10474215;28;20029;-62
2022/01/19 10:56:28;;;;;;;32.10;12.98;;;7.50;99.90;;;;;;10486635;28;20037;-61
2022/01/19 11:01:52;;;;;;;34.03;13.85;;;7.50;99.90;;;;;;10472946;28;20024;-59
2022/01/19 11:07:01;;;;;;;32.65;14.15;;;7.50;99.90;;;;;;10481649;28;20718;-58
2022/01/19 11:12:10;;;;;;;37.72;14.88;;;7.40;99.90;;;;;;10473728;28;20040;-61
2022/01/19 11:17:11;;;;;;;31.55;14.13;;;7.50;99.90;;;;;;10484590;28;20497;-61
2022/01/19 11:22:18;;;;;;;31.58;13.35;;;7.50;99.90;;;;;;10482802;28;20025;-60
2022/01/19 11:27:19;;;;;;;33.00;15.05;;;7.50;99.90;;;;;;10479373;28;20074;-61
2022/01/19 11:32:20;;;;;;;36.75;15.82;;;7.50;99.90;;;;;;10480792;28;20043;-60
2022/01/19 11:37:33;;;;;;;36.58;15.65;;;7.50;99.90;;;;;;10474167;28;20564;-58
2022/01/19 11:42:34;;;;;;;34.83;13.80;;;7.60;99.90;;;;;;10535270;28;20027;-60
2022/01/19 11:47:38;;;;;;;36.95;14.45;;;7.50;99.90;;;;;;10527195;28;20138;-61
2022/01/19 11:52:39;;;;;;;35.60;14.77;;;7.60;99.90;;;;;;10514888;28;20028;-61
2022/01/19 11:57:41;;;;;;;39.90;16.33;;;7.60;99.90;;;;;;10518395;28;20068;-61
2022/01/19 12:02:50;;;;;;;35.50;14.90;;;7.80;99.90;;;;;;10508279;28;20588;-68
2022/01/19 12:08:21;;;;;;;34.25;14.27;;;7.60;99.90;;;;;;10530789;28;20059;-60
2022/01/19 12:18:47;;;;;;;35.10;15.10;;;7.60;99.90;;;;;;10519282;28;20164;-59
2022/01/19 12:23:49;;;;;;;45.88;17.25;;;7.60;99.90;;;;;;10526528;28;20018;-59
2022/01/19 12:28:53;;;;;;;35.95;15.77;;;7.60;99.90;;;;;;10528355;28;20547;-60
2022/01/19 12:34:08;;;;;;;39.95;16.05;;;7.60;99.90;;;;;;10520602;28;20024;-60
2022/01/19 12:39:24;;;;;;;42.28;16.63;;;7.60;99.90;;;;;;10516872;28;20056;-61
2022/01/19 12:44:34;;;;;;;34.28;15.40;;;7.60;99.90;;;;;;10522876;28;20020;-61
2022/01/19 12:49:35;;;;;;;40.47;16.65;;;7.60;99.90;;;;;;10522387;28;20036;-60
2022/01/19 12:54:35;;;;;;;43.55;16.90;;;7.60;99.90;;;;;;10514926;28;20081;-61
2022/01/19 12:59:38;;;;;;;43.92;18.70;;;7.60;99.90;;;;;;10536152;28;20048;-61
2022/01/19 13:04:40;;;;;;;42.60;16.38;;;7.60;99.90;;;;;;10504907;28;20048;-62
2022/01/19 13:15:43;;;;;;;42.35;16.15;;;7.60;99.90;;;;;;10514878;28;20048;-61
2022/01/19 13:20:49;;;;;;;36.95;15.88;;;7.60;99.90;;;;;;10540880;28;20039;-61
2022/01/19 13:26:02;;;;;;;41.45;16.40;;;7.70;99.90;;;;;;10527738;28;20028;-61
2022/01/19 13:31:32;;;;;;;33.60;15.10;;;7.70;99.90;;;;;;10524111;28;20028;-61
2022/01/19 13:36:36;;;;;;;37.13;15.73;;;7.90;99.90;;;;;;10501032;28;20511;-61
2022/01/19 13:41:43;;;;;;;35.08;14.68;;;7.80;99.90;;;;;;10529526;28;20054;-61
2022/01/19 13:46:44;;;;;;;34.17;15.50;;;7.70;99.90;;;;;;10532404;28;20613;-61
2022/01/19 13:51:44;;;;;;;38.85;16.33;;;7.70;99.90;;;;;;10509525;28;20028;-62
2022/01/19 13:56:45;;;;;;;34.72;14.55;;;7.70;99.90;;;;;;10531864;28;20032;-62
2022/01/19 14:02:08;;;;;;;33.25;15.63;;;7.80;99.90;;;;;;10508964;28;20028;-59
2022/01/19 14:07:13;;;;;;;36.20;15.55;;;7.70;99.90;;;;;;10506862;28;20039;-61
2022/01/19 14:12:16;;;;;;;38.00;15.23;;;7.70;99.90;;;;;;10526157;28;20434;-61
2022/01/19 14:17:36;;;;;;;34.55;15.02;;;7.70;99.90;;;;;;10525382;28;20039;-61
2022/01/19 14:22:37;;;;;;;39.22;15.77;;;7.70;99.90;;;;;;10511379;28;20031;-61
2022/01/19 14:27:52;;;;;;;37.47;15.50;;;7.70;99.90;;;;;;10510396;28;20016;-61
2022/01/19 14:32:57;;;;;;;31.00;13.75;;;7.70;99.90;;;;;;10524655;28;20154;-62
2022/01/19 14:38:00;;;;;;;30.35;14.70;;;7.70;99.90;;;;;;10525442;28;20044;-61
2022/01/19 14:43:01;;;;;;;31.55;14.25;;;7.70;99.90;;;;;;10535021;28;20023;-61
2022/01/19 14:48:18;;;;;;;31.98;13.77;;;7.70;99.90;;;;;;10517958;28;20359;-61
2022/01/19 14:53:18;;;;;;;29.65;12.95;;;7.70;99.90;;;;;;10490228;28;20041;-61
2022/01/19 14:58:19;;;;;;;29.48;13.55;;;7.70;99.90;;;;;;10503627;28;20037;-62
2022/01/19 15:03:20;;;;;;;33.25;13.63;;;7.70;99.90;;;;;;10491056;28;20016;-61
2022/01/19 15:08:20;;;;;;;29.50;13.05;;;7.70;99.90;;;;;;10507873;28;20039;-61
2022/01/19 15:13:21;;;;;;;37.00;14.65;;;7.70;99.90;;;;;;10523404;28;20215;-61
2022/01/19 15:18:22;;;;;;;34.28;13.05;;;7.70;99.90;;;;;;10527952;28;20485;-60
2022/01/19 15:23:22;;;;;;;29.70;13.43;;;7.70;99.90;;;;;;10521524;28;20036;-60
2022/01/19 15:28:24;;;;;;;29.38;13.57;;;7.60;99.90;;;;;;10511688;28;20052;-59
2022/01/19 15:33:27;;;;;;;31.45;13.05;;;7.70;99.90;;;;;;10522893;28;20035;-60
2022/01/19 15:38:28;;;;;;;25.27;12.50;;;7.70;99.90;;;;;;10499906;28;20101;-61
2022/01/19 15:43:32;;;;;;;24.33;12.38;;;7.70;99.90;;;;;;10538198;28;20498;-60
2022/01/19 15:48:34;;;;;;;29.77;13.25;;;7.70;99.90;;;;;;10524011;28;20510;-61
2022/01/19 15:53:35;;;;;;;31.30;12.48;;;7.70;99.90;;;;;;10516211;28;20285;-61
2022/01/19 15:58:35;;;;;;;25.20;12.57;;;7.70;99.90;;;;;;10526846;28;20128;-60
2022/01/19 16:03:36;;;;;;;27.17;11.30;;;7.70;99.90;;;;;;10520523;28;20379;-62
2022/01/19 16:08:37;;;;;;;26.20;11.85;;;7.70;99.90;;;;;;10517299;28;20059;-60
2022/01/19 16:13:37;;;;;;;23.27;11.40;;;7.70;99.90;;;;;;10502624;28;20032;-60
2022/01/19 16:18:38;;;;;;;25.42;11.68;;;7.70;99.90;;;;;;10514357;28;20104;-60
2022/01/19 16:28:59;;;;;;;20.83;10.95;;;7.70;99.90;;;;;;10489668;28;20025;-59
2022/01/19 16:34:00;;;;;;;24.08;10.77;;;7.70;99.90;;;;;;10494604;28;20470;-60
2022/01/19 16:39:01;;;;;;;24.30;10.73;;;7.70;99.90;;;;;;10528244;28;20044;-61
2022/01/19 16:44:06;;;;;;;20.98;9.48;;;8.60;99.90;;;;;;10539729;28;20040;-58
2022/01/19 16:49:15;;;;;;;15.05;8.13;;;7.80;99.90;;;;;;10521541;28;20024;-61
2022/01/19 16:54:16;;;;;;;18.88;8.07;;;7.80;99.90;;;;;;10490610;28;20422;-59
2022/01/19 16:59:17;;;;;;;16.63;7.45;;;7.80;99.90;;;;;;10518596;28;20127;-61
2022/01/19 17:04:17;;;;;;;15.18;7.18;;;7.80;99.90;;;;;;10514895;28;20445;-61
2022/01/19 17:09:18;;;;;;;14.60;6.00;;;7.80;99.90;;;;;;10525236;28;20047;-63
2022/01/19 17:14:23;;;;;;;13.98;5.90;;;7.70;99.90;;;;;;10516503;28;20034;-58
2022/01/19 17:19:26;;;;;;;12.90;5.20;;;7.80;99.90;;;;;;10537213;28;20044;-62
2022/01/19 17:24:27;;;;;;;10.85;4.30;;;7.80;99.90;;;;;;10531223;28;20670;-63
2022/01/19 17:29:27;;;;;;;13.20;4.80;;;7.90;99.90;;;;;;10525754;28;20051;-60
2022/01/19 17:34:28;;;;;;;13.05;4.22;;;7.90;99.90;;;;;;10528468;28;20537;-62
2022/01/19 17:39:29;;;;;;;9.50;4.03;;;7.90;99.90;;;;;;10525083;28;20143;-62
2022/01/19 17:44:31;;;;;;;7.50;3.33;;;7.80;99.90;;;;;;10525868;28;20028;-62
2022/01/19 17:54:42;;;;;;;10.32;2.80;;;7.80;99.90;;;;;;10512028;28;20032;-62
2022/01/19 17:59:43;;;;;;;13.15;2.88;;;7.90;99.90;;;;;;10528825;28;20036;-63
2022/01/19 18:04:45;;;;;;;17.77;3.95;;;7.90;99.90;;;;;;10525594;28;20376;-63
2022/01/19 18:09:48;;;;;;;11.38;3.88;;;8.10;99.90;;;;;;10523379;28;20039;-63
2022/01/19 18:14:49;;;;;;;13.52;3.13;;;8.10;99.90;;;;;;10526208;28;20040;-63
2022/01/19 18:19:50;;;;;;;14.98;3.05;;;8.20;99.90;;;;;;10524140;28;20139;-60
2022/01/19 18:24:52;;;;;;;16.58;3.05;;;8.10;99.90;;;;;;10523735;28;20020;-63
2022/01/19 18:29:53;;;;;;;9.45;2.67;;;8.10;99.90;;;;;;10527103;28;20027;-62
2022/01/19 18:34:53;;;;;;;14.90;3.15;;;8.00;99.90;;;;;;10527442;28;20033;-64
2022/01/19 18:39:55;;;;;;;12.55;2.85;;;8.00;99.90;;;;;;10514861;28;20052;-63
2022/01/19 18:44:56;;;;;;;12.32;2.78;;;8.00;99.90;;;;;;10531978;28;20095;-64
2022/01/19 18:49:57;;;;;;;17.88;3.50;;;8.00;99.90;;;;;;10520062;28;20539;-65
2022/01/19 18:54:58;;;;;;;17.63;3.45;;;8.00;99.90;;;;;;10509555;28;20028;-61
2022/01/19 18:59:58;;;;;;;11.10;2.67;;;8.00;99.90;;;;;;10517849;28;20040;-64
2022/01/19 19:04:59;;;;;;;14.88;2.80;;;8.00;99.90;;;;;;10504374;28;20050;-64
2022/01/19 19:10:13;;;;;;;10.88;2.17;;;7.90;99.90;;;;;;10495026;28;20029;-64
2022/01/19 19:15:16;;;;;;;13.55;2.70;;;7.90;99.90;;;;;;10507350;28;20060;-63
2022/01/19 19:20:17;;;;;;;13.43;2.30;;;7.90;99.90;;;;;;10513906;28;20033;-64
2022/01/19 19:25:22;;;;;;;13.02;2.90;;;7.90;99.90;;;;;;10514618;28;20036;-64
2022/01/19 19:30:24;;;;;;;15.10;2.88;;;7.90;99.90;;;;;;10518660;28;20033;-61
2022/01/19 19:35:27;;;;;;;12.73;2.65;;;7.90;99.90;;;;;;10506954;28;20056;-63
2022/01/19 19:40:28;;;;;;;11.88;2.85;;;7.90;99.90;;;;;;10506734;28;20469;-63
2022/01/19 19:45:28;;;;;;;12.15;2.95;;;7.90;99.90;;;;;;10518040;28;20020;-63
2022/01/19 19:50:29;;;;;;;14.73;2.85;;;7.80;99.90;;;;;;10516688;28;20109;-61
2022/01/19 19:55:31;;;;;;;6.80;2.38;;;7.80;99.90;;;;;;10508518;28;20020;-63
2022/01/19 20:00:33;;;;;;;13.95;2.50;;;7.80;99.90;;;;;;10526239;28;20121;-63
2022/01/19 20:05:34;;;;;;;16.85;3.13;;;7.80;99.90;;;;;;10523460;28;20107;-62
2022/01/19 20:10:37;;;;;;;19.25;3.70;;;7.80;99.90;;;;;;10527288;28;20032;-62
2022/01/19 20:15:37;;;;;;;15.05;3.95;;;7.80;99.90;;;;;;10518125;28;20032;-63
2022/01/19 20:20:39;;;;;;;14.90;3.70;;;7.80;99.90;;;;;;10520763;28;20058;-63
2022/01/19 20:25:41;;;;;;;13.32;3.53;;;7.90;99.90;;;;;;10509551;28;20081;-63
2022/01/19 20:30:43;;;;;;;15.43;3.88;;;7.70;99.90;;;;;;10507938;28;20029;-62
2022/01/19 20:35:44;;;;;;;15.75;3.55;;;7.70;99.90;;;;;;10510573;28;20024;-61
2022/01/19 20:40:45;;;;;;;13.55;3.90;;;7.70;99.90;;;;;;10486899;28;20052;-62
2022/01/19 20:45:46;;;;;;;18.25;4.20;;;7.70;99.90;;;;;;10516718;28;20539;-62
2022/01/19 20:50:49;;;;;;;13.63;3.95;;;7.70;99.90;;;;;;10516392;28;20065;-62
2022/01/19 20:55:50;;;;;;;12.73;3.85;;;7.70;99.90;;;;;;10511410;28;20027;-62
2022/01/19 21:00:53;;;;;;;13.18;3.72;;;7.70;99.90;;;;;;10527409;28;20028;-62
2022/01/19 21:05:54;;;;;;;14.57;3.58;;;7.70;99.90;;;;;;10529454;28;20019;-62
2022/01/19 21:10:54;;;;;;;11.02;3.03;;;7.60;99.90;;;;;;10520844;28;20030;-62
2022/01/19 21:15:57;;;;;;;10.77;3.72;;;7.60;99.90;;;;;;10515639;28;20021;-63
2022/01/19 21:20:59;;;;;;;13.70;3.60;;;7.60;99.90;;;;;;10524668;28;20052;-63
2022/01/19 21:26:00;;;;;;;10.77;3.17;;;7.60;99.90;;;;;;10520756;28;20036;-60
2022/01/19 21:31:01;;;;;;;7.22;2.70;;;7.60;99.90;;;;;;10511655;28;20026;-60
2022/01/19 21:36:03;;;;;;;8.85;2.60;;;7.60;99.90;;;;;;10513754;28;20402;-62
2022/01/19 21:41:03;;;;;;;11.40;3.03;;;7.60;99.90;;;;;;10469368;28;20084;-63
2022/01/19 21:46:05;;;;;;;13.25;3.15;;;7.50;99.90;;;;;;10482153;28;20063;-62
2022/01/19 21:51:05;;;;;;;9.65;2.90;;;7.60;99.90;;;;;;10487365;28;20062;-63
2022/01/19 21:56:07;;;;;;;13.68;3.15;;;7.50;99.90;;;;;;10485460;28;20526;-64
2022/01/19 22:01:08;;;;;;;12.05;3.17;;;8.40;99.90;;;;;;10491149;28;20047;-60
2022/01/19 22:06:09;;;;;;;12.77;3.53;;;7.50;99.90;;;;;;10487801;28;20051;-63
2022/01/19 22:11:10;;;;;;;9.05;2.60;;;7.60;99.90;;;;;;10469354;28;20036;-60
2022/01/19 22:16:11;;;;;;;13.50;3.25;;;7.50;99.90;;;;;;10479156;28;20441;-59
2022/01/19 22:21:15;;;;;;;12.98;2.65;;;7.60;99.90;;;;;;10484264;28;20040;-61
2022/01/19 22:26:16;;;;;;;10.32;2.53;;;7.50;99.90;;;;;;10471185;28;20115;-61
2022/01/19 22:31:17;;;;;;;12.93;2.95;;;7.60;99.90;;;;;;10461559;28;20063;-60
2022/01/19 22:36:18;;;;;;;9.55;2.22;;;7.60;99.90;;;;;;10441939;28;20070;-60
2022/01/19 22:41:18;;;;;;;8.68;2.55;;;7.60;99.90;;;;;;10510276;28;20506;-60
2022/01/19 22:46:19;;;;;;;9.90;2.20;;;7.60;99.90;;;;;;10518477;28;20107;-59
2022/01/19 22:51:20;;;;;;;11.95;2.50;;;7.60;99.90;;;;;;10502490;28;20043;-61
2022/01/19 22:56:21;;;;;;;10.07;3.20;;;7.60;99.90;;;;;;10518623;28;20051;-60
2022/01/19 23:01:22;;;;;;;8.25;1.70;;;7.60;99.90;;;;;;10524328;28;20036;-60
2022/01/19 23:06:22;;;;;;;10.38;2.30;;;7.60;99.90;;;;;;10526714;28;20031;-61
2022/01/19 23:11:27;;;;;;;8.00;2.00;;;7.60;99.90;;;;;;10524281;28;20029;-60
2022/01/19 23:16:27;;;;;;;7.45;1.98;;;7.60;99.90;;;;;;10506261;28;20016;-60
2022/01/19 23:21:28;;;;;;;12.23;2.45;;;7.50;99.90;;;;;;10527512;28;20032;-61
2022/01/19 23:26:33;;;;;;;10.25;2.63;;;7.60;99.90;;;;;;10520275;28;20032;-59
2022/01/19 23:31:34;;;;;;;5.03;1.80;;;7.50;99.90;;;;;;10520507;28;20113;-60
2022/01/19 23:36:46;;;;;;;6.05;2.22;;;7.50;99.90;;;;;;10526613;28;20024;-63
2022/01/19 23:52:26;;;;;;;;;;;7.60;99.90;;;;;;10518971;28;20489;-64
2022/01/19 23:57:35;;;;;;;6.65;1.67;;;7.50;99.90;;;;;;10530969;28;19919;-60
